Accueil
METAR-TAF:

METAR-TAF

Aéroports :

Rutherford County Airport (Marchman Field)

Rutherfordton, Caroline du Nord, États-Unis

latitude: 35-25-42N, longitude: 081-56-06W, altitude: 329 m

Observation

Le bulletin a été fait il y a 18 minutes, à 22:35 UTC
Vent 15 kt de nord-ouest avec des rafales jusqu'à 21 kt
Température 7°C
Humidité 53%
Pression 1016 hPa
Visibilité: 16.1 km
Nuages épars à une hauteur de 7500 ft

METAR: KFQD 282235Z AUTO 31015G21KT 10SM SCT075 07/M02 A3000 RMK AO2

Heure: 17:53 (22:53 UTC)


TAF: absent

Observations et prévisions météorologiques de plus de 4000 aéroports (messages METAR et TAF).

Les stations disponibles sont représentées par des disques jaunes et rouges sur la carte.

Passer la souris dessus pour voir le nom de la station.

Cliquer dessus pour voir les observations et prévisions météorologiques.

Pour changer de carte: cliquez sur les boutons verts avec une croix noire pour zoomer, sur le bouton vert avec un tiret pour effectuer un zoom arrière, ou sur les flèches vertes pour les cartes adjacentes.


METAR-TAF: